createdAt,value
2022-08-16T00:02:42.520Z,100.00
2022-08-16T00:05:48.240Z,100.00
2022-08-16T00:08:52.432Z,100.00
2022-08-16T00:11:55.495Z,100.00
2022-08-16T00:15:00.258Z,100.00
2022-08-16T00:18:04.513Z,100.00
2022-08-16T00:21:11.542Z,100.00
2022-08-16T00:24:31.209Z,100.00
2022-08-16T00:27:34.774Z,100.00
2022-08-16T00:30:39.767Z,100.00
2022-08-16T00:33:42.554Z,100.00
2022-08-16T00:36:55.793Z,100.00
2022-08-16T00:39:58.449Z,100.00
2022-08-16T00:43:00.860Z,100.00
2022-08-16T00:46:22.303Z,100.00
2022-08-16T00:49:39.543Z,100.00
2022-08-16T00:52:51.195Z,100.00
2022-08-16T00:55:56.178Z,100.00
2022-08-16T00:59:01.238Z,100.00
2022-08-16T01:02:30.105Z,100.00
2022-08-16T01:05:28.822Z,100.00
2022-08-16T01:08:36.421Z,100.00
2022-08-16T01:11:53.712Z,100.00
2022-08-16T01:15:00.082Z,100.00
2022-08-16T01:18:05.775Z,100.00
2022-08-16T01:21:36.132Z,100.00
2022-08-16T01:24:54.054Z,100.00
2022-08-16T01:28:00.391Z,100.00
2022-08-16T01:31:05.271Z,100.00
2022-08-16T01:34:07.048Z,100.00
2022-08-16T01:37:11.109Z,100.00
2022-08-16T01:40:16.365Z,100.00
2022-08-16T01:43:19.386Z,100.00
2022-08-16T01:46:38.020Z,100.00
2022-08-16T01:50:41.867Z,100.00
2022-08-16T01:53:23.762Z,100.00
2022-08-16T01:56:37.002Z,100.00
2022-08-16T01:59:39.041Z,100.00
2022-08-16T02:02:43.279Z,100.00
2022-08-16T02:05:46.603Z,100.00
2022-08-16T02:08:55.022Z,100.00
2022-08-16T02:12:00.016Z,100.00
2022-08-16T02:15:25.817Z,100.00
2022-08-16T02:18:29.933Z,100.00
2022-08-16T02:21:33.668Z,100.00
2022-08-16T02:24:41.193Z,100.00
2022-08-16T02:27:50.866Z,100.00
2022-08-16T02:30:54.798Z,100.00
2022-08-16T02:33:56.901Z,100.00
2022-08-16T02:37:07.684Z,100.00
2022-08-16T02:40:11.266Z,100.00
2022-08-16T02:43:13.535Z,100.00
2022-08-16T02:46:16.969Z,100.00
2022-08-16T02:49:18.630Z,100.00
2022-08-16T02:52:24.866Z,100.00
2022-08-16T02:55:40.807Z,100.00
2022-08-16T02:58:45.145Z,100.00
2022-08-16T03:01:47.070Z,100.00
2022-08-16T03:04:59.132Z,100.00
2022-08-16T03:08:00.707Z,100.00
2022-08-16T03:11:06.530Z,100.00
2022-08-16T03:14:21.138Z,100.00
2022-08-16T03:17:32.183Z,100.00
2022-08-16T03:20:37.169Z,100.00
2022-08-16T03:23:41.751Z,100.00
2022-08-16T03:26:45.567Z,100.00
2022-08-16T03:29:54.522Z,100.00
2022-08-16T03:32:58.111Z,100.00
2022-08-16T03:36:29.924Z,100.00
2022-08-16T03:39:31.657Z,100.00
2022-08-16T03:42:33.706Z,100.00
2022-08-16T03:45:57.311Z,100.00
2022-08-16T03:49:05.085Z,100.00
2022-08-16T03:52:09.203Z,100.00
2022-08-16T03:55:14.664Z,100.00
2022-08-16T03:58:18.001Z,100.00
2022-08-16T04:01:22.068Z,100.00
2022-08-16T04:04:32.249Z,100.00
2022-08-16T04:07:36.855Z,100.00
2022-08-16T04:10:41.140Z,100.00
2022-08-16T04:14:00.856Z,100.00
2022-08-16T04:17:10.682Z,100.00
2022-08-16T04:20:31.090Z,100.00
2022-08-16T04:23:38.820Z,100.00
2022-08-16T04:26:46.503Z,100.00
2022-08-16T04:29:52.135Z,100.00
2022-08-16T04:32:55.755Z,100.00
2022-08-16T04:35:58.892Z,100.00
2022-08-16T04:39:02.057Z,100.00
2022-08-16T04:42:10.979Z,100.00
2022-08-16T04:45:15.384Z,100.00
2022-08-16T04:48:28.157Z,100.00
2022-08-16T04:51:35.850Z,100.00
2022-08-16T04:54:38.155Z,100.00
2022-08-16T04:57:46.202Z,100.00
2022-08-16T05:00:55.529Z,100.00
2022-08-16T05:04:00.507Z,100.00
2022-08-16T05:07:06.142Z,100.00
2022-08-16T05:10:29.895Z,100.00
2022-08-16T05:13:40.538Z,100.00
2022-08-16T05:16:46.211Z,100.00
2022-08-16T05:19:57.267Z,100.00
2022-08-16T05:23:04.741Z,100.00
2022-08-16T05:26:20.023Z,100.00
2022-08-16T05:29:22.560Z,100.00
2022-08-16T05:32:47.397Z,100.00
2022-08-16T05:35:55.713Z,100.00
2022-08-16T05:39:20.845Z,100.00
2022-08-16T05:42:35.887Z,100.00
2022-08-16T05:45:38.512Z,100.00
2022-08-16T05:48:44.738Z,100.00
2022-08-16T05:51:59.750Z,100.00
2022-08-16T05:55:01.898Z,100.00
2022-08-16T05:58:07.663Z,100.00
2022-08-16T06:01:11.195Z,100.00
2022-08-16T06:04:35.044Z,100.00
2022-08-16T06:07:37.613Z,100.00
2022-08-16T06:11:10.445Z,100.00
2022-08-16T06:14:08.128Z,100.00
2022-08-16T06:17:16.285Z,100.00
2022-08-16T06:20:24.007Z,100.00
2022-08-16T06:23:32.297Z,100.00
2022-08-16T06:26:39.251Z,100.00
2022-08-16T06:29:59.701Z,100.00
2022-08-16T06:33:01.732Z,100.00
2022-08-16T06:36:04.706Z,100.00
2022-08-16T06:39:10.009Z,100.00
2022-08-16T06:42:39.591Z,100.00
2022-08-16T06:46:24.419Z,100.00
2022-08-16T06:49:34.248Z,100.00
2022-08-16T06:52:59.835Z,100.00
2022-08-16T06:55:59.158Z,100.00
2022-08-16T06:59:09.296Z,100.00
2022-08-16T07:02:33.452Z,100.00
2022-08-16T07:05:41.716Z,100.00
2022-08-16T07:08:50.428Z,100.00
2022-08-16T07:11:54.102Z,100.00
2022-08-16T07:15:08.524Z,100.00
2022-08-16T07:18:20.146Z,100.00
2022-08-16T07:21:22.427Z,100.00
2022-08-16T07:24:30.344Z,100.00
2022-08-16T07:27:37.024Z,100.00
2022-08-16T07:30:45.875Z,100.00
2022-08-16T07:34:10.098Z,100.00
2022-08-16T07:37:12.710Z,100.00
2022-08-16T07:40:59.368Z,100.00
2022-08-16T07:43:59.851Z,100.00
2022-08-16T07:47:03.186Z,100.00
2022-08-16T07:50:07.824Z,100.00
2022-08-16T07:53:09.882Z,100.00
2022-08-16T07:56:12.938Z,100.00
2022-08-16T07:59:16.121Z,100.00
2022-08-16T08:02:20.437Z,100.00
2022-08-16T08:05:36.829Z,100.00
2022-08-16T08:08:51.104Z,100.00
2022-08-16T08:12:00.671Z,100.00
2022-08-16T08:15:10.685Z,100.00
2022-08-16T08:18:30.256Z,100.00
2022-08-16T08:21:59.863Z,100.00
2022-08-16T08:25:04.010Z,100.00
2022-08-16T08:28:10.869Z,100.00
2022-08-16T08:31:16.259Z,100.00
2022-08-16T08:34:21.233Z,100.00
2022-08-16T08:37:25.453Z,100.00
2022-08-16T08:40:30.819Z,100.00
2022-08-16T08:43:36.389Z,98.58
2022-08-16T08:46:44.066Z,100.00
2022-08-16T08:50:05.546Z,100.00
2022-08-16T08:53:08.409Z,95.14
2022-08-16T08:56:23.807Z,93.99
2022-08-16T08:59:32.941Z,92.07
2022-08-16T09:02:36.791Z,90.56
2022-08-16T09:05:39.298Z,88.02
2022-08-16T09:08:47.519Z,85.16
2022-08-16T09:12:04.086Z,89.21
2022-08-16T09:15:15.867Z,91.46
2022-08-16T09:18:27.191Z,87.46
2022-08-16T09:21:37.804Z,86.90
2022-08-16T09:24:51.487Z,88.69
2022-08-16T09:27:57.749Z,84.55
2022-08-16T09:31:06.122Z,86.90
2022-08-16T09:34:07.934Z,83.06
2022-08-16T09:37:17.864Z,76.83
2022-08-16T09:40:33.094Z,74.72
2022-08-16T09:43:58.245Z,82.32
2022-08-16T09:47:01.266Z,80.12
2022-08-16T09:50:03.658Z,73.13
2022-08-16T09:53:23.138Z,74.29
2022-08-16T09:56:34.717Z,73.17
2022-08-16T09:59:38.475Z,72.06
2022-08-16T10:02:48.000Z,68.20
2022-08-16T10:05:58.407Z,66.91
2022-08-16T10:09:05.160Z,70.42
2022-08-16T10:12:26.963Z,70.21
2022-08-16T10:15:30.481Z,66.38
2022-08-16T10:18:56.093Z,66.24
2022-08-16T10:21:56.215Z,58.46
2022-08-16T10:24:59.976Z,62.30
2022-08-16T10:28:27.982Z,58.60
2022-08-16T10:31:46.140Z,58.76
2022-08-16T10:34:45.065Z,54.82
2022-08-16T10:37:46.598Z,58.52
2022-08-16T10:40:48.176Z,55.88
2022-08-16T10:43:50.444Z,54.34
2022-08-16T10:46:51.934Z,53.00
2022-08-16T10:49:55.671Z,54.88
2022-08-16T10:52:59.418Z,52.84
2022-08-16T10:56:02.888Z,52.12
2022-08-16T11:02:57.740Z,54.48
2022-08-16T11:06:06.005Z,51.84
2022-08-16T11:09:25.612Z,49.96
2022-08-16T11:12:32.058Z,48.03
2022-08-16T11:15:35.666Z,49.00
2022-08-16T11:19:04.787Z,48.62
2022-08-16T11:22:39.276Z,49.19
2022-08-16T11:32:10.396Z,48.56
2022-08-16T11:35:43.069Z,47.71
2022-08-16T11:38:55.316Z,50.13
2022-08-16T11:41:59.547Z,51.21
2022-08-16T11:45:01.070Z,50.87
2022-08-16T11:48:05.003Z,50.05
2022-08-16T11:51:06.611Z,49.67
2022-08-16T11:54:15.587Z,48.06
2022-08-16T11:57:22.538Z,47.40
2022-08-16T12:00:50.146Z,46.00
2022-08-16T12:03:46.217Z,45.73
2022-08-16T12:06:48.121Z,45.36
2022-08-16T12:09:53.477Z,47.83
2022-08-16T12:12:55.445Z,44.48
2022-08-16T12:15:59.575Z,42.91
2022-08-16T12:19:02.379Z,44.21
2022-08-16T12:22:19.047Z,43.41
2022-08-16T12:25:22.402Z,43.84
2022-08-16T12:28:25.418Z,43.02
2022-08-16T12:31:59.279Z,44.21
2022-08-16T12:35:03.142Z,45.28
2022-08-16T12:38:08.800Z,44.85
2022-08-16T12:41:28.953Z,46.47
2022-08-16T12:44:37.580Z,46.50
2022-08-16T12:48:22.572Z,46.29
2022-08-16T12:51:24.498Z,46.87
2022-08-16T12:54:27.334Z,48.53
2022-08-16T12:57:36.525Z,47.91
2022-08-16T13:00:38.637Z,47.17
2022-08-16T13:03:42.028Z,47.90
2022-08-16T13:06:44.596Z,48.89
2022-08-16T13:09:55.428Z,47.66
2022-08-16T13:12:56.953Z,47.26
2022-08-16T13:16:05.645Z,45.08
2022-08-16T13:19:12.412Z,44.43
2022-08-16T13:22:19.517Z,44.50
2022-08-16T13:25:24.975Z,44.44
2022-08-16T13:28:26.661Z,43.52
2022-08-16T13:31:29.794Z,43.76
2022-08-16T13:34:31.289Z,44.30
2022-08-16T13:37:34.861Z,42.93
2022-08-16T13:40:37.925Z,42.17
2022-08-16T13:43:40.079Z,42.59
2022-08-16T13:46:41.716Z,42.28
2022-08-16T13:49:43.787Z,41.86
2022-08-16T13:52:45.379Z,41.70
2022-08-16T13:55:47.439Z,40.82
2022-08-16T13:59:00.470Z,43.14
2022-08-16T14:02:05.351Z,40.09
2022-08-16T14:05:07.782Z,41.84
2022-08-16T14:08:12.578Z,41.39
2022-08-16T14:11:16.141Z,40.46
2022-08-16T14:14:18.385Z,41.46
2022-08-16T14:17:23.968Z,41.24
2022-08-16T14:20:25.884Z,41.51
2022-08-16T14:23:27.726Z,42.00
2022-08-16T14:26:30.071Z,41.60
2022-08-16T14:29:34.949Z,41.20
2022-08-16T14:32:41.571Z,41.33
2022-08-16T14:35:50.653Z,42.06
2022-08-16T14:38:52.434Z,41.18
2022-08-16T14:41:55.817Z,41.70
2022-08-16T14:44:57.619Z,41.16
2022-08-16T14:48:02.501Z,41.26
2022-08-16T14:51:06.084Z,40.53
2022-08-16T14:54:11.127Z,40.44
2022-08-16T14:57:14.275Z,40.34
2022-08-16T15:00:18.153Z,38.68
2022-08-16T15:03:21.764Z,39.30
2022-08-16T15:06:24.025Z,38.83
2022-08-16T15:09:26.025Z,38.36
2022-08-16T15:12:33.334Z,38.61
2022-08-16T15:15:37.237Z,38.23
2022-08-16T15:18:39.523Z,37.86
2022-08-16T15:21:41.198Z,37.70
2022-08-16T15:24:43.393Z,37.64
2022-08-16T15:27:45.758Z,38.13
2022-08-16T15:31:00.319Z,37.87
2022-08-16T15:34:02.601Z,37.29
2022-08-16T15:37:04.122Z,37.30
2022-08-16T15:40:26.491Z,37.00
2022-08-16T15:43:40.053Z,35.76
2022-08-16T15:46:56.550Z,36.94
2022-08-16T15:50:05.694Z,36.82
2022-08-16T15:53:12.570Z,36.33
2022-08-16T15:56:14.251Z,36.11
2022-08-16T15:59:16.077Z,35.96
2022-08-16T16:02:29.720Z,35.47
2022-08-16T16:05:32.847Z,36.06
2022-08-16T16:08:34.774Z,35.42
2022-08-16T16:11:38.283Z,35.99
2022-08-16T16:14:39.939Z,35.95
2022-08-16T16:17:43.930Z,35.47
2022-08-16T16:20:56.064Z,35.95
2022-08-16T16:23:57.933Z,37.83
2022-08-16T16:27:04.270Z,38.91
2022-08-16T16:30:32.770Z,37.88
2022-08-16T16:33:29.418Z,37.94
2022-08-16T16:36:34.384Z,38.64
2022-08-16T16:39:37.028Z,38.03
2022-08-16T16:42:44.520Z,38.23
2022-08-16T16:45:46.141Z,38.75
2022-08-16T16:48:48.243Z,37.97
2022-08-16T16:51:51.330Z,38.27
2022-08-16T16:54:52.827Z,38.77
2022-08-16T16:58:17.714Z,38.94
2022-08-16T17:01:20.738Z,39.42
2022-08-16T17:04:32.005Z,39.69
2022-08-16T17:07:34.120Z,40.14
2022-08-16T17:10:46.464Z,40.82
2022-08-16T17:13:52.288Z,41.39
2022-08-16T17:16:53.741Z,41.84
2022-08-16T17:19:55.208Z,42.40
2022-08-16T17:23:01.065Z,42.70
2022-08-16T17:26:02.606Z,43.27
2022-08-16T17:29:11.886Z,43.48
2022-08-16T17:32:33.817Z,43.73
2022-08-16T17:35:55.129Z,43.87
2022-08-16T17:38:57.562Z,44.53
2022-08-16T17:42:09.827Z,44.80
2022-08-16T17:45:11.408Z,45.41
2022-08-16T17:48:13.161Z,45.56
2022-08-16T17:51:15.056Z,46.11
2022-08-16T17:54:21.407Z,47.07
2022-08-16T17:57:31.958Z,47.73
2022-08-16T18:00:33.908Z,48.00
2022-08-16T18:04:02.740Z,49.39
2022-08-16T18:06:59.975Z,49.57
2022-08-16T18:10:02.116Z,49.90
2022-08-16T18:13:07.795Z,50.30
2022-08-16T18:16:10.151Z,51.29
2022-08-16T18:19:12.028Z,52.54
2022-08-16T18:22:30.213Z,53.71
2022-08-16T18:25:32.181Z,55.39
2022-08-16T18:28:38.719Z,56.16
2022-08-16T18:31:40.280Z,58.34
2022-08-16T18:34:42.217Z,59.22
2022-08-16T18:37:43.713Z,58.32
2022-08-16T18:40:45.935Z,59.57
2022-08-16T18:44:23.016Z,60.51
2022-08-16T18:47:09.750Z,61.82
2022-08-16T18:50:11.252Z,62.13
2022-08-16T18:53:15.950Z,63.98
2022-08-16T18:56:17.359Z,64.93
2022-08-16T18:59:18.946Z,66.83
2022-08-16T19:02:56.098Z,65.50
2022-08-16T19:05:50.903Z,67.57
2022-08-16T19:08:52.351Z,67.87
2022-08-16T19:11:53.844Z,69.68
2022-08-16T19:14:57.336Z,71.31
2022-08-16T19:18:00.169Z,76.65
2022-08-16T19:21:01.712Z,77.87
2022-08-16T19:24:03.595Z,76.26
2022-08-16T19:27:07.156Z,75.63
2022-08-16T19:30:09.495Z,76.94
2022-08-16T19:33:11.372Z,78.37
2022-08-16T19:36:30.438Z,82.79
2022-08-16T19:39:36.469Z,85.93
2022-08-16T19:42:39.717Z,90.27
2022-08-16T19:45:45.791Z,91.61
2022-08-16T19:48:47.609Z,91.50
2022-08-16T19:51:49.095Z,92.58
2022-08-16T19:54:54.502Z,95.02
2022-08-16T19:57:56.547Z,96.83
2022-08-16T20:00:58.036Z,95.06
2022-08-16T20:04:00.194Z,94.07
2022-08-16T20:07:01.940Z,94.63
2022-08-16T20:10:05.878Z,94.87
2022-08-16T20:13:12.904Z,93.83
2022-08-16T20:16:15.236Z,94.68
2022-08-16T20:19:16.714Z,95.89
2022-08-16T20:22:42.164Z,99.42
2022-08-16T20:25:47.489Z,100.00
2022-08-16T20:28:53.819Z,99.77
2022-08-16T20:31:56.578Z,99.14
2022-08-16T20:34:58.173Z,98.77
2022-08-16T20:38:01.705Z,98.08
2022-08-16T20:41:03.250Z,98.43
2022-08-16T20:44:04.765Z,97.96
2022-08-16T20:47:10.055Z,98.49
2022-08-16T20:50:11.583Z,100.00
2022-08-16T20:53:13.122Z,99.89
2022-08-16T20:56:14.766Z,100.00
2022-08-16T20:59:16.720Z,100.00
2022-08-16T21:02:25.994Z,100.00
2022-08-16T21:05:31.115Z,100.00
2022-08-16T21:08:52.754Z,100.00
2022-08-16T21:11:57.348Z,100.00
2022-08-16T21:15:04.381Z,100.00
2022-08-16T21:18:05.929Z,100.00
2022-08-16T21:21:07.561Z,100.00
2022-08-16T21:24:09.012Z,100.00
2022-08-16T21:27:11.089Z,100.00
2022-08-16T21:30:15.675Z,100.00
2022-08-16T21:33:20.899Z,100.00
2022-08-16T21:36:35.009Z,100.00
2022-08-16T21:39:38.638Z,100.00
2022-08-16T21:42:42.668Z,100.00
2022-08-16T21:45:45.111Z,100.00
2022-08-16T21:48:46.637Z,100.00
2022-08-16T21:51:48.178Z,100.00
2022-08-16T21:54:56.281Z,100.00
2022-08-16T21:57:58.228Z,100.00
2022-08-16T22:01:01.120Z,100.00
2022-08-16T22:04:38.105Z,100.00
2022-08-16T22:07:25.857Z,100.00
2022-08-16T22:11:06.529Z,100.00
2022-08-16T22:13:58.007Z,100.00
2022-08-16T22:17:01.461Z,100.00
2022-08-16T22:20:05.306Z,100.00
2022-08-16T22:23:13.943Z,100.00
2022-08-16T22:26:15.713Z,100.00
2022-08-16T22:29:17.228Z,100.00
2022-08-16T22:32:18.695Z,100.00
2022-08-16T22:35:20.167Z,100.00
2022-08-16T22:38:54.957Z,100.00
2022-08-16T22:41:45.373Z,100.00
2022-08-16T22:44:46.922Z,100.00
2022-08-16T22:47:48.682Z,100.00
2022-08-16T22:50:51.256Z,100.00
2022-08-16T22:53:53.430Z,100.00
2022-08-16T22:56:57.234Z,100.00
2022-08-16T22:59:58.789Z,100.00
2022-08-16T23:03:13.792Z,100.00
2022-08-16T23:06:15.873Z,100.00
2022-08-16T23:09:17.675Z,100.00
2022-08-16T23:12:29.118Z,100.00
2022-08-16T23:15:42.838Z,100.00
2022-08-16T23:18:45.162Z,100.00
2022-08-16T23:21:47.184Z,100.00
2022-08-16T23:24:56.014Z,100.00
2022-08-16T23:27:58.325Z,100.00
2022-08-16T23:31:05.021Z,100.00
2022-08-16T23:34:06.570Z,100.00
2022-08-16T23:37:08.096Z,100.00
2022-08-16T23:40:11.678Z,100.00
2022-08-16T23:43:17.271Z,100.00
2022-08-16T23:46:19.446Z,100.00
2022-08-16T23:49:57.594Z,100.00
2022-08-16T23:52:58.766Z,100.00
2022-08-16T23:56:03.767Z,100.00
2022-08-16T23:59:05.589Z,100.00
